Time;durP1;ratioP1;P1;durP2;ratioP2;P2;SDS_P1;SDS_P2;PMS_P1;PMS_P2;Temp;Humidity;BMP_temperature;BMP_pressure;BME280_temperature;BME280_humidity;BME280_pressure;Samples;Min_cycle;Max_cycle;Signal;HPM_P1;HPM_P2
2021/06/26 00:01:48;;;;;;;26.13;16.67;;;;;;;;;;5097672;28;20440;-53
2021/06/26 00:04:17;;;;;;;17.53;14.13;;;;;;;;;;5097984;28;20470;-58
2021/06/26 00:06:44;;;;;;;28.77;14.90;;;;;;;;;;5097785;28;20522;-59
2021/06/26 00:09:37;;;;;;;22.80;15.60;;;;;;;;;;5097496;28;20448;-58
2021/06/26 00:12:05;;;;;;;21.57;16.00;;;;;;;;;;5111271;28;20475;-60
2021/06/26 00:14:34;;;;;;;18.87;13.60;;;;;;;;;;5116982;28;20459;-59
2021/06/26 00:20:08;;;;;;;20.23;13.50;;;;;;;;;;5099210;28;20528;-54
2021/06/26 00:22:35;;;;;;;47.07;26.63;;;;;;;;;;5096199;28;20444;-59
2021/06/26 00:25:06;;;;;;;23.87;16.50;;;;;;;;;;5096485;28;20482;-57
2021/06/26 00:27:36;;;;;;;20.83;16.27;;;;;;;;;;5096352;28;20487;-57
2021/06/26 00:30:03;;;;;;;23.80;18.10;;;;;;;;;;5095892;28;20478;-56
2021/06/26 00:32:38;;;;;;;24.10;17.07;;;;;;;;;;5095185;28;20453;-62
2021/06/26 00:35:08;;;;;;;18.67;14.67;;;;;;;;;;5095919;28;20463;-58
2021/06/26 00:37:35;;;;;;;21.90;16.93;;;;;;;;;;5096066;28;20452;-61
2021/06/26 00:40:14;;;;;;;19.83;15.57;;;;;;;;;;5095551;28;20494;-59
2021/06/26 00:42:42;;;;;;;23.37;16.20;;;;;;;;;;5095852;28;20507;-59
2021/06/26 00:45:12;;;;;;;21.87;17.50;;;;;;;;;;5095717;28;20452;-50
2021/06/26 00:47:40;;;;;;;21.10;16.13;;;;;;;;;;5095658;28;20546;-60
2021/06/26 00:50:14;;;;;;;24.43;16.43;;;;;;;;;;5095038;28;20464;-59
2021/06/26 00:52:42;;;;;;;41.60;28.63;;;;;;;;;;5095507;28;20448;-57
2021/06/26 00:55:13;;;;;;;24.50;18.80;;;;;;;;;;5095799;28;20467;-58
2021/06/26 00:57:42;;;;;;;23.70;16.90;;;;;;;;;;5095830;28;20455;-55
2021/06/26 01:00:12;;;;;;;24.97;17.87;;;;;;;;;;5095414;28;20486;-54
2021/06/26 01:02:46;;;;;;;25.13;18.00;;;;;;;;;;5095433;28;20512;-59
2021/06/26 01:05:19;;;;;;;22.87;17.50;;;;;;;;;;5095274;28;20527;-52
2021/06/26 01:07:47;;;;;;;31.63;17.33;;;;;;;;;;5095049;28;20538;-59
2021/06/26 01:10:19;;;;;;;19.13;16.13;;;;;;;;;;5094703;28;20467;-56
2021/06/26 01:12:46;;;;;;;32.17;17.77;;;;;;;;;;5094991;28;20459;-54
2021/06/26 01:15:16;;;;;;;20.60;15.57;;;;;;;;;;5095453;28;20471;-56
2021/06/26 01:17:49;;;;;;;21.00;16.60;;;;;;;;;;5095574;28;20496;-60
2021/06/26 01:20:18;;;;;;;25.87;17.47;;;;;;;;;;5095350;28;20490;-55
2021/06/26 01:22:54;;;;;;;24.53;16.57;;;;;;;;;;5095359;28;20448;-55
2021/06/26 01:25:32;;;;;;;24.33;18.47;;;;;;;;;;5095946;28;20550;-57
2021/06/26 01:28:00;;;;;;;27.03;17.80;;;;;;;;;;5093488;28;20514;-56
2021/06/26 01:30:28;;;;;;;20.07;15.90;;;;;;;;;;5114353;28;20463;-57
2021/06/26 01:33:24;;;;;;;20.33;15.33;;;;;;;;;;5115965;28;20486;-55
2021/06/26 01:35:51;;;;;;;21.07;16.60;;;;;;;;;;5100686;28;20484;-59
2021/06/26 01:38:20;;;;;;;21.17;16.47;;;;;;;;;;5095305;28;20448;-59
2021/06/26 01:40:47;;;;;;;19.43;15.60;;;;;;;;;;5095459;28;20448;-53
2021/06/26 01:43:15;;;;;;;22.80;17.30;;;;;;;;;;5095073;28;20463;-55
2021/06/26 01:45:46;;;;;;;21.70;15.63;;;;;;;;;;5094879;28;20483;-58
2021/06/26 01:48:13;;;;;;;19.47;15.57;;;;;;;;;;5094675;28;20694;-57
2021/06/26 01:50:40;;;;;;;19.70;15.70;;;;;;;;;;5094776;28;20476;-56
2021/06/26 01:53:17;;;;;;;19.00;16.13;;;;;;;;;;5095117;28;20533;-58
2021/06/26 01:55:46;;;;;;;21.63;17.23;;;;;;;;;;5095471;28;20745;-56
2021/06/26 01:58:15;;;;;;;26.60;17.17;;;;;;;;;;5095199;28;20435;-56
2021/06/26 02:00:50;;;;;;;19.27;16.20;;;;;;;;;;5094949;28;20522;-56
2021/06/26 02:03:18;;;;;;;21.37;16.47;;;;;;;;;;5095745;28;20523;-56
2021/06/26 02:05:47;;;;;;;21.63;16.37;;;;;;;;;;5096940;28;20470;-56
2021/06/26 02:08:24;;;;;;;23.83;18.37;;;;;;;;;;5099072;28;20533;-60
2021/06/26 02:10:52;;;;;;;20.77;15.83;;;;;;;;;;5111052;28;20478;-60
2021/06/26 02:13:20;;;;;;;20.33;16.00;;;;;;;;;;5118372;28;20450;-57
2021/06/26 02:16:07;;;;;;;20.77;15.20;;;;;;;;;;5099637;28;20515;-51
2021/06/26 02:18:34;;;;;;;19.50;14.13;;;;;;;;;;5098351;28;20444;-51
2021/06/26 02:21:02;;;;;;;20.13;14.60;;;;;;;;;;5108095;28;20443;-54
2021/06/26 02:23:33;;;;;;;19.73;15.60;;;;;;;;;;5111277;28;20563;-54
2021/06/26 02:26:02;;;;;;;22.17;14.57;;;;;;;;;;5118050;28;20469;-55
2021/06/26 02:28:29;;;;;;;19.50;14.50;;;;;;;;;;5128945;28;20491;-57
2021/06/26 02:30:59;;;;;;;22.57;17.73;;;;;;;;;;5118835;28;20467;-59
2021/06/26 02:33:26;;;;;;;24.10;15.80;;;;;;;;;;5118480;28;20466;-59
2021/06/26 02:35:54;;;;;;;22.93;15.93;;;;;;;;;;5118363;28;20462;-58
2021/06/26 02:38:40;;;;;;;24.53;19.67;;;;;;;;;;5119334;28;20473;-56
2021/06/26 02:41:08;;;;;;;21.97;16.67;;;;;;;;;;5115827;28;20455;-61
2021/06/26 02:43:36;;;;;;;23.60;16.30;;;;;;;;;;5104715;28;20466;-58
2021/06/26 02:46:05;;;;;;;27.70;15.80;;;;;;;;;;5102500;28;20471;-58
2021/06/26 02:48:33;;;;;;;22.60;16.10;;;;;;;;;;5112355;28;20505;-60
2021/06/26 02:51:01;;;;;;;24.20;17.90;;;;;;;;;;5110828;28;20458;-55
2021/06/26 02:53:30;;;;;;;24.80;18.43;;;;;;;;;;5102011;28;20458;-56
2021/06/26 02:55:58;;;;;;;40.23;27.40;;;;;;;;;;5117704;28;20486;-59
2021/06/26 02:58:26;;;;;;;28.80;19.30;;;;;;;;;;5097393;28;20496;-57
2021/06/26 03:01:09;;;;;;;30.50;16.97;;;;;;;;;;5099937;28;20469;-61
2021/06/26 03:03:36;;;;;;;21.27;15.50;;;;;;;;;;5110374;28;20529;-61
2021/06/26 03:06:06;;;;;;;21.80;16.60;;;;;;;;;;5111177;28;20473;-57
2021/06/26 03:08:40;;;;;;;27.80;20.93;;;;;;;;;;5111385;28;20498;-56
2021/06/26 03:11:07;;;;;;;64.00;40.27;;;;;;;;;;5116594;28;20471;-54
2021/06/26 03:13:36;;;;;;;51.40;32.80;;;;;;;;;;5106854;28;20480;-61
2021/06/26 03:16:05;;;;;;;23.50;17.00;;;;;;;;;;5117371;28;20492;-56
2021/06/26 03:18:33;;;;;;;23.47;17.20;;;;;;;;;;5115915;27;20468;-57
2021/06/26 03:21:00;;;;;;;52.53;31.57;;;;;;;;;;5126211;28;20459;-60
2021/06/26 03:23:30;;;;;;;46.07;29.00;;;;;;;;;;5108484;28;20518;-59
2021/06/26 03:25:59;;;;;;;29.33;22.67;;;;;;;;;;5125841;28;20498;-54
2021/06/26 03:28:31;;;;;;;39.73;27.13;;;;;;;;;;5102692;28;20494;-58
2021/06/26 03:31:12;;;;;;;33.10;22.60;;;;;;;;;;5109401;27;20475;-59
2021/06/26 03:33:39;;;;;;;25.00;17.10;;;;;;;;;;5112140;28;20462;-55
2021/06/26 03:36:07;;;;;;;20.60;15.57;;;;;;;;;;5111496;28;20476;-59
2021/06/26 03:38:35;;;;;;;24.90;18.30;;;;;;;;;;5111136;28;20483;-58
2021/06/26 03:41:02;;;;;;;38.13;29.10;;;;;;;;;;5117559;28;20463;-55
2021/06/26 03:43:30;;;;;;;27.03;18.73;;;;;;;;;;5109740;28;20498;-59
2021/06/26 03:45:59;;;;;;;18.70;14.60;;;;;;;;;;5098863;28;20464;-59
2021/06/26 03:48:30;;;;;;;29.80;22.07;;;;;;;;;;5103430;28;20495;-53
2021/06/26 03:50:59;;;;;;;38.47;27.93;;;;;;;;;;5109670;28;20456;-61
2021/06/26 03:53:34;;;;;;;33.07;23.07;;;;;;;;;;5097898;28;20444;-59
2021/06/26 03:56:05;;;;;;;31.57;21.87;;;;;;;;;;5116488;28;20446;-56
2021/06/26 03:58:53;;;;;;;55.13;35.13;;;;;;;;;;5107519;28;20452;-54
2021/06/26 04:01:23;;;;;;;59.60;38.73;;;;;;;;;;5112761;28;20558;-59
2021/06/26 04:03:53;;;;;;;18.80;15.10;;;;;;;;;;5112102;28;20469;-60
2021/06/26 04:06:31;;;;;;;23.90;14.73;;;;;;;;;;5108820;28;20477;-56
2021/06/26 04:08:58;;;;;;;94.00;51.17;;;;;;;;;;5103242;28;20487;-51
2021/06/26 04:14:30;;;;;;;28.00;18.53;;;;;;;;;;5112552;28;20493;-58
2021/06/26 04:17:09;;;;;;;18.50;13.33;;;;;;;;;;5119506;28;21043;-55
2021/06/26 04:19:39;;;;;;;69.37;37.90;;;;;;;;;;5110115;28;20476;-60
2021/06/26 04:22:07;;;;;;;68.53;33.80;;;;;;;;;;5099046;28;20499;-55
2021/06/26 04:24:34;;;;;;;36.73;17.27;;;;;;;;;;5107902;28;20539;-57
2021/06/26 04:27:08;;;;;;;17.80;14.03;;;;;;;;;;5099223;28;20457;-55
2021/06/26 04:29:35;;;;;;;29.50;19.30;;;;;;;;;;5097796;28;20475;-57
2021/06/26 04:32:02;;;;;;;16.47;13.80;;;;;;;;;;5107504;28;20482;-59
2021/06/26 04:34:46;;;;;;;19.43;14.57;;;;;;;;;;5107805;28;20447;-55
2021/06/26 04:37:17;;;;;;;17.83;12.80;;;;;;;;;;5082861;28;20481;-60
2021/06/26 04:39:46;;;;;;;17.93;12.87;;;;;;;;;;5083347;28;20436;-60
2021/06/26 04:45:17;;;;;;;17.83;11.93;;;;;;;;;;5105179;28;20437;-61
2021/06/26 04:47:44;;;;;;;19.30;12.03;;;;;;;;;;5115662;28;20464;-54
2021/06/26 04:50:16;;;;;;;15.83;12.33;;;;;;;;;;5112777;28;20525;-54
2021/06/26 04:52:44;;;;;;;16.60;11.90;;;;;;;;;;5111050;28;20455;-55
2021/06/26 04:55:14;;;;;;;17.80;11.50;;;;;;;;;;5114248;28;20471;-55
2021/06/26 04:57:41;;;;;;;14.73;12.73;;;;;;;;;;5097959;28;20445;-54
2021/06/26 05:00:09;;;;;;;18.73;12.10;;;;;;;;;;5105280;28;20489;-54
2021/06/26 05:02:48;;;;;;;23.93;13.73;;;;;;;;;;5106537;28;20493;-62
2021/06/26 05:05:17;;;;;;;16.73;11.33;;;;;;;;;;5115875;28;20793;-57
2021/06/26 05:07:46;;;;;;;14.53;11.17;;;;;;;;;;5102720;28;20510;-53
2021/06/26 05:10:32;;;;;;;18.57;12.53;;;;;;;;;;5110444;28;20481;-53
2021/06/26 05:13:00;;;;;;;17.93;12.50;;;;;;;;;;5115395;28;20452;-57
2021/06/26 05:15:27;;;;;;;13.20;10.87;;;;;;;;;;5090175;28;20495;-58
2021/06/26 05:18:32;;;;;;;13.57;11.10;;;;;;;;;;5084483;28;20453;-55
2021/06/26 05:21:01;;;;;;;15.93;11.63;;;;;;;;;;5081981;28;20456;-56
2021/06/26 05:23:29;;;;;;;13.90;11.13;;;;;;;;;;5093070;28;20456;-59
2021/06/26 05:25:56;;;;;;;15.90;11.53;;;;;;;;;;5092845;28;20474;-55
2021/06/26 05:28:23;;;;;;;15.13;10.67;;;;;;;;;;5089657;28;20480;-60
2021/06/26 05:31:02;;;;;;;15.97;10.73;;;;;;;;;;5084478;28;20516;-50
2021/06/26 05:33:32;;;;;;;14.27;12.17;;;;;;;;;;5081341;28;20478;-57
2021/06/26 05:36:01;;;;;;;12.73;10.67;;;;;;;;;;5096405;28;20444;-55
2021/06/26 05:38:29;;;;;;;17.20;10.93;;;;;;;;;;5083555;28;20457;-56
2021/06/26 05:40:56;;;;;;;14.83;11.03;;;;;;;;;;5076201;28;20457;-60
2021/06/26 05:43:41;;;;;;;16.40;11.60;;;;;;;;;;5093098;28;20452;-55
2021/06/26 05:46:08;;;;;;;17.50;12.33;;;;;;;;;;5085400;28;20440;-61
2021/06/26 05:48:36;;;;;;;14.23;11.37;;;;;;;;;;5096219;28;20475;-56
2021/06/26 05:51:18;;;;;;;18.77;12.63;;;;;;;;;;5089485;28;20544;-61
2021/06/26 05:53:45;;;;;;;15.10;10.90;;;;;;;;;;5091488;28;20650;-59
2021/06/26 05:56:15;;;;;;;15.30;11.60;;;;;;;;;;5094469;28;20463;-55
2021/06/26 05:58:45;;;;;;;14.87;10.90;;;;;;;;;;5084579;28;20471;-54
2021/06/26 06:01:13;;;;;;;14.90;11.27;;;;;;;;;;5078860;28;20452;-60
2021/06/26 06:03:53;;;;;;;16.50;13.13;;;;;;;;;;5080196;28;20459;-59
2021/06/26 06:06:22;;;;;;;20.70;13.00;;;;;;;;;;5081568;28;20506;-57
2021/06/26 06:08:54;;;;;;;36.67;14.47;;;;;;;;;;5082196;28;20484;-56
2021/06/26 06:14:26;;;;;;;16.63;12.93;;;;;;;;;;5110158;28;20561;-54
2021/06/26 06:16:54;;;;;;;18.53;13.23;;;;;;;;;;5104712;28;20458;-56
2021/06/26 06:19:41;;;;;;;18.27;12.30;;;;;;;;;;5096133;28;20455;-55
2021/06/26 06:22:10;;;;;;;15.40;12.07;;;;;;;;;;5093737;28;20527;-59
2021/06/26 06:24:38;;;;;;;17.07;12.80;;;;;;;;;;5095867;28;20447;-60
2021/06/26 06:27:28;;;;;;;20.00;13.10;;;;;;;;;;5096252;28;20448;-57
2021/06/26 06:29:56;;;;;;;16.03;12.50;;;;;;;;;;5093759;28;20480;-56
2021/06/26 06:32:26;;;;;;;16.87;12.90;;;;;;;;;;5095924;28;20437;-54
2021/06/26 06:35:01;;;;;;;17.50;13.33;;;;;;;;;;5095735;28;20444;-55
2021/06/26 06:37:31;;;;;;;16.10;12.33;;;;;;;;;;5095180;28;20503;-56
2021/06/26 06:39:58;;;;;;;20.17;12.77;;;;;;;;;;5095070;28;20448;-62
2021/06/26 06:42:31;;;;;;;22.60;13.40;;;;;;;;;;5095476;28;20483;-56
2021/06/26 06:44:59;;;;;;;17.67;13.57;;;;;;;;;;5095544;28;20448;-54
2021/06/26 06:47:26;;;;;;;18.50;13.60;;;;;;;;;;5095265;28;20671;-61
2021/06/26 06:49:53;;;;;;;20.20;13.87;;;;;;;;;;5096489;28;20480;-56
2021/06/26 06:52:21;;;;;;;16.63;12.30;;;;;;;;;;5098469;28;20420;-57
2021/06/26 06:54:55;;;;;;;17.23;13.23;;;;;;;;;;5098302;28;20502;-57
2021/06/26 06:57:24;;;;;;;20.27;14.03;;;;;;;;;;5098156;28;20499;-51
2021/06/26 06:59:52;;;;;;;18.47;13.67;;;;;;;;;;5098574;28;20460;-55
2021/06/26 07:02:19;;;;;;;19.90;13.90;;;;;;;;;;5098831;28;20512;-53
2021/06/26 07:04:47;;;;;;;19.40;14.23;;;;;;;;;;5088182;28;20804;-56
2021/06/26 07:07:15;;;;;;;20.67;15.63;;;;;;;;;;5097767;28;20452;-58
2021/06/26 07:09:44;;;;;;;19.37;14.37;;;;;;;;;;5098789;28;20491;-53
2021/06/26 07:12:14;;;;;;;22.07;15.43;;;;;;;;;;5098235;28;20512;-60
2021/06/26 07:14:41;;;;;;;20.40;16.20;;;;;;;;;;5098749;28;20436;-57
2021/06/26 07:17:41;;;;;;;21.13;15.63;;;;;;;;;;5098547;28;20520;-56
2021/06/26 07:20:09;;;;;;;23.83;15.90;;;;;;;;;;5098508;28;20452;-53
2021/06/26 07:22:36;;;;;;;20.97;15.87;;;;;;;;;;5098276;28;20433;-55
2021/06/26 07:25:19;;;;;;;21.23;16.77;;;;;;;;;;5098017;28;20464;-55
2021/06/26 07:27:49;;;;;;;17.80;15.30;;;;;;;;;;5101338;28;20501;-55
2021/06/26 07:30:18;;;;;;;30.30;18.53;;;;;;;;;;5119350;28;20472;-54
2021/06/26 07:35:46;;;;;;;27.93;22.13;;;;;;;;;;5107946;28;20455;-55
2021/06/26 07:38:23;;;;;;;24.20;19.10;;;;;;;;;;5118181;28;20507;-56
2021/06/26 07:40:51;;;;;;;26.07;19.17;;;;;;;;;;5117492;28;20453;-59
2021/06/26 07:43:25;;;;;;;24.80;20.10;;;;;;;;;;5118286;28;20446;-57
2021/06/26 07:45:55;;;;;;;25.80;21.23;;;;;;;;;;5117300;28;20439;-58
2021/06/26 07:48:23;;;;;;;27.80;20.03;;;;;;;;;;5117836;28;20528;-58
2021/06/26 07:50:51;;;;;;;26.43;18.93;;;;;;;;;;5118208;28;20443;-55
2021/06/26 07:53:30;;;;;;;26.37;19.97;;;;;;;;;;5118016;28;20419;-54
2021/06/26 07:56:01;;;;;;;25.33;18.20;;;;;;;;;;5118096;28;20432;-60
2021/06/26 07:58:36;;;;;;;25.87;18.27;;;;;;;;;;5117653;28;20482;-59
2021/06/26 08:01:04;;;;;;;22.83;19.87;;;;;;;;;;5116956;28;20451;-61
2021/06/26 08:03:31;;;;;;;25.97;19.30;;;;;;;;;;5117601;28;20462;-58
2021/06/26 08:06:01;;;;;;;23.90;17.93;;;;;;;;;;5117530;28;20466;-59
2021/06/26 08:08:28;;;;;;;23.43;16.30;;;;;;;;;;5128036;28;20534;-53
2021/06/26 08:10:56;;;;;;;27.87;20.60;;;;;;;;;;5137893;28;20525;-55
2021/06/26 08:13:37;;;;;;;23.80;19.40;;;;;;;;;;5137909;28;20447;-60
2021/06/26 08:16:04;;;;;;;22.10;17.20;;;;;;;;;;5137838;28;20518;-61
2021/06/26 08:18:34;;;;;;;25.47;18.33;;;;;;;;;;5137348;28;20462;-59
2021/06/26 08:21:07;;;;;;;22.00;17.07;;;;;;;;;;5138178;28;20461;-59
2021/06/26 08:23:36;;;;;;;21.07;16.93;;;;;;;;;;5118599;28;20440;-60
2021/06/26 08:26:03;;;;;;;21.97;19.60;;;;;;;;;;5115135;28;20468;-53
2021/06/26 08:28:43;;;;;;;23.30;18.97;;;;;;;;;;5105501;28;20480;-61
2021/06/26 08:31:11;;;;;;;21.67;15.97;;;;;;;;;;5096879;28;20660;-58
2021/06/26 08:33:39;;;;;;;21.57;16.93;;;;;;;;;;5115853;28;20474;-60
2021/06/26 08:36:14;;;;;;;20.63;17.07;;;;;;;;;;5116565;28;20482;-60
2021/06/26 08:38:41;;;;;;;22.13;16.60;;;;;;;;;;5108577;28;20473;-60
2021/06/26 08:41:09;;;;;;;21.30;15.37;;;;;;;;;;5099622;28;20518;-51
2021/06/26 08:44:05;;;;;;;21.73;16.40;;;;;;;;;;5107918;28;20441;-58
2021/06/26 08:46:34;;;;;;;19.37;15.73;;;;;;;;;;5096875;28;20457;-57
2021/06/26 08:49:02;;;;;;;18.93;15.10;;;;;;;;;;5103234;28;20550;-56
2021/06/26 08:51:54;;;;;;;18.30;14.87;;;;;;;;;;5115901;28;20490;-59
2021/06/26 08:54:22;;;;;;;19.63;16.20;;;;;;;;;;5106783;28;20564;-57
2021/06/26 08:56:51;;;;;;;21.30;14.47;;;;;;;;;;5117011;28;20488;-63
2021/06/26 08:59:32;;;;;;;19.70;14.70;;;;;;;;;;5116209;28;20464;-61
2021/06/26 09:02:06;;;;;;;21.17;15.70;;;;;;;;;;5099735;28;20520;-54
2021/06/26 09:04:39;;;;;;;21.20;15.87;;;;;;;;;;5095860;28;20440;-61
2021/06/26 09:07:06;;;;;;;25.00;16.57;;;;;;;;;;5102901;28;20460;-54
2021/06/26 09:09:35;;;;;;;21.43;16.40;;;;;;;;;;5101161;28;20877;-56
2021/06/26 09:12:39;;;;;;;21.00;15.80;;;;;;;;;;5115659;28;20452;-58
2021/06/26 09:15:08;;;;;;;21.17;14.53;;;;;;;;;;5115743;28;20471;-59
2021/06/26 09:17:52;;;;;;;20.60;17.00;;;;;;;;;;5115877;28;20527;-60
2021/06/26 09:20:52;;;;;;;17.90;14.27;;;;;;;;;;5101112;28;20443;-59
2021/06/26 09:23:27;;;;;;;17.13;13.93;;;;;;;;;;5095637;28;20465;-56
2021/06/26 09:26:05;;;;;;;16.40;13.00;;;;;;;;;;5095308;28;20926;-50
2021/06/26 09:28:39;;;;;;;19.50;13.50;;;;;;;;;;5095691;28;20466;-57
2021/06/26 09:31:15;;;;;;;22.03;17.17;;;;;;;;;;5100820;28;20491;-60
2021/06/26 09:33:44;;;;;;;14.33;11.90;;;;;;;;;;5106654;28;20462;-60
2021/06/26 09:36:12;;;;;;;17.47;11.43;;;;;;;;;;5104126;28;20511;-57
2021/06/26 09:38:56;;;;;;;10.60;8.77;;;;;;;;;;5098213;28;20437;-60
2021/06/26 09:41:25;;;;;;;10.67;8.17;;;;;;;;;;5115843;28;20463;-62
2021/06/26 09:43:52;;;;;;;10.07;7.63;;;;;;;;;;5107838;28;20517;-54
2021/06/26 09:46:21;;;;;;;9.57;7.93;;;;;;;;;;5113324;28;20452;-57
2021/06/26 09:49:17;;;;;;;8.93;7.20;;;;;;;;;;5109774;28;20460;-62
2021/06/26 09:51:44;;;;;;;10.50;7.90;;;;;;;;;;5108144;28;20472;-49
2021/06/26 09:54:18;;;;;;;10.60;7.50;;;;;;;;;;5098887;28;20515;-58
2021/06/26 09:56:46;;;;;;;8.60;6.03;;;;;;;;;;5094687;28;20469;-56
2021/06/26 09:59:14;;;;;;;10.77;7.83;;;;;;;;;;5109350;28;20442;-59
2021/06/26 10:01:49;;;;;;;13.13;7.63;;;;;;;;;;5103614;28;20446;-61
2021/06/26 10:04:18;;;;;;;10.87;6.57;;;;;;;;;;5114745;28;20482;-58
2021/06/26 10:06:46;;;;;;;9.03;5.70;;;;;;;;;;5114938;28;20459;-55
2021/06/26 10:09:16;;;;;;;13.30;7.93;;;;;;;;;;5114302;28;20485;-56
2021/06/26 10:11:43;;;;;;;6.93;5.10;;;;;;;;;;5105799;28;20530;-61
2021/06/26 10:14:11;;;;;;;8.80;5.40;;;;;;;;;;5094247;28;20431;-59
2021/06/26 10:16:58;;;;;;;9.03;6.00;;;;;;;;;;5106913;28;20512;-56
2021/06/26 10:19:27;;;;;;;9.50;6.33;;;;;;;;;;5099051;28;20450;-55
2021/06/26 10:21:55;;;;;;;7.67;5.80;;;;;;;;;;5101212;28;20456;-58
2021/06/26 10:24:24;;;;;;;6.73;5.30;;;;;;;;;;5094958;28;20458;-57
2021/06/26 10:26:52;;;;;;;10.23;6.70;;;;;;;;;;5098161;28;20460;-55
2021/06/26 10:32:34;;;;;;;7.00;6.07;;;;;;;;;;5102431;28;20484;-61
2021/06/26 10:35:17;;;;;;;7.20;5.57;;;;;;;;;;5089339;28;20467;-60
2021/06/26 10:37:44;;;;;;;8.80;5.93;;;;;;;;;;5086179;28;20470;-58
2021/06/26 10:40:15;;;;;;;10.10;7.17;;;;;;;;;;5098069;28;20455;-59
2021/06/26 10:43:03;;;;;;;17.70;9.03;;;;;;;;;;5097992;28;20451;-59
2021/06/26 10:45:31;;;;;;;12.53;6.97;;;;;;;;;;5097647;28;20658;-61
2021/06/26 10:48:07;;;;;;;8.57;6.50;;;;;;;;;;5097258;28;20448;-57
2021/06/26 10:50:50;;;;;;;11.77;7.53;;;;;;;;;;5097883;28;20494;-58
2021/06/26 10:53:28;;;;;;;7.40;6.10;;;;;;;;;;5097354;28;20479;-57
2021/06/26 10:56:07;;;;;;;15.07;7.17;;;;;;;;;;5097435;28;20518;-56
2021/06/26 11:01:39;;;;;;;8.57;6.30;;;;;;;;;;5096681;28;20440;-58
2021/06/26 11:04:10;;;;;;;9.10;7.37;;;;;;;;;;5096990;28;20459;-59
2021/06/26 11:06:39;;;;;;;8.40;6.83;;;;;;;;;;5096414;28;20440;-59
2021/06/26 11:09:13;;;;;;;9.87;7.23;;;;;;;;;;5096221;28;20460;-53
2021/06/26 11:11:42;;;;;;;8.53;6.60;;;;;;;;;;5096922;28;20432;-53
2021/06/26 11:14:20;;;;;;;8.33;6.40;;;;;;;;;;5096878;28;20452;-60
2021/06/26 11:17:00;;;;;;;8.50;7.10;;;;;;;;;;5096705;28;20538;-48
2021/06/26 11:19:30;;;;;;;7.80;6.70;;;;;;;;;;5094945;28;20470;-53
2021/06/26 11:21:58;;;;;;;8.03;6.40;;;;;;;;;;5087555;28;20466;-57
2021/06/26 11:24:33;;;;;;;9.63;8.17;;;;;;;;;;5085001;28;20517;-55
2021/06/26 11:27:39;;;;;;;10.80;7.20;;;;;;;;;;5095463;28;20452;-56
2021/06/26 11:30:20;;;;;;;8.67;6.70;;;;;;;;;;5087332;28;20518;-55
2021/06/26 11:32:57;;;;;;;8.30;6.60;;;;;;;;;;5100791;28;20478;-59
2021/06/26 11:35:47;;;;;;;9.20;6.50;;;;;;;;;;5113042;28;20454;-56
2021/06/26 11:38:29;;;;;;;6.70;5.30;;;;;;;;;;5101735;28;20471;-60
2021/06/26 11:44:13;;;;;;;8.20;5.70;;;;;;;;;;5104902;28;20662;-59
2021/06/26 11:46:41;;;;;;;8.27;6.50;;;;;;;;;;5117041;28;20467;-59
2021/06/26 11:49:09;;;;;;;25.37;8.30;;;;;;;;;;5097532;28;20448;-56
2021/06/26 11:51:37;;;;;;;8.43;6.30;;;;;;;;;;5100754;28;20475;-53
2021/06/26 11:54:22;;;;;;;9.03;5.87;;;;;;;;;;5114780;28;20469;-53
2021/06/26 11:56:53;;;;;;;10.27;6.77;;;;;;;;;;5110503;28;20471;-56
2021/06/26 11:59:30;;;;;;;7.20;6.00;;;;;;;;;;5113621;28;20459;-56
2021/06/26 12:01:58;;;;;;;7.43;5.40;;;;;;;;;;5110505;28;20451;-60
2021/06/26 12:04:39;;;;;;;7.63;6.00;;;;;;;;;;5115128;28;20451;-60
2021/06/26 12:07:17;;;;;;;10.20;6.97;;;;;;;;;;5101529;28;20443;-52
2021/06/26 12:09:47;;;;;;;8.33;6.10;;;;;;;;;;5097215;28;20506;-58
2021/06/26 12:12:15;;;;;;;6.10;4.70;;;;;;;;;;5102320;28;20467;-62
2021/06/26 12:14:48;;;;;;;10.73;7.40;;;;;;;;;;5098089;28;20535;-57
2021/06/26 12:17:20;;;;;;;7.97;5.30;;;;;;;;;;5105531;28;20455;-51
2021/06/26 12:19:47;;;;;;;7.27;5.00;;;;;;;;;;5100987;28;20460;-57
2021/06/26 12:22:21;;;;;;;9.70;5.70;;;;;;;;;;5107008;28;20452;-56
2021/06/26 12:24:48;;;;;;;11.60;5.60;;;;;;;;;;5109195;28;20451;-56
2021/06/26 12:27:22;;;;;;;9.80;5.53;;;;;;;;;;5106438;28;20505;-59
2021/06/26 12:30:13;;;;;;;7.53;5.27;;;;;;;;;;5115413;28;20523;-59
2021/06/26 12:32:42;;;;;;;9.40;7.27;;;;;;;;;;5106840;28;20486;-58
2021/06/26 12:35:11;;;;;;;8.90;6.03;;;;;;;;;;5103197;28;20441;-59
2021/06/26 12:38:09;;;;;;;9.80;6.07;;;;;;;;;;5109518;28;20670;-54
2021/06/26 12:40:52;;;;;;;7.93;5.10;;;;;;;;;;5096264;28;20448;-58
2021/06/26 12:43:34;;;;;;;13.87;6.27;;;;;;;;;;5124006;27;20479;-56
2021/06/26 12:46:03;;;;;;;8.40;6.07;;;;;;;;;;5107829;28;20652;-58
2021/06/26 12:48:40;;;;;;;6.93;4.93;;;;;;;;;;5109088;28;20481;-52
2021/06/26 12:51:32;;;;;;;9.10;6.80;;;;;;;;;;5110464;28;20479;-55
2021/06/26 12:54:00;;;;;;;7.20;5.33;;;;;;;;;;5115004;28;20482;-57
2021/06/26 12:56:28;;;;;;;8.30;6.23;;;;;;;;;;5115220;28;20451;-56
2021/06/26 12:58:56;;;;;;;7.33;6.17;;;;;;;;;;5115609;28;20501;-57
2021/06/26 13:01:35;;;;;;;6.63;5.50;;;;;;;;;;5115101;28;20489;-58
2021/06/26 13:04:17;;;;;;;8.80;5.80;;;;;;;;;;5114866;28;20443;-60
2021/06/26 13:06:45;;;;;;;10.10;7.50;;;;;;;;;;5104123;28;20450;-59
2021/06/26 13:09:13;;;;;;;7.23;5.60;;;;;;;;;;5114586;28;20502;-59
2021/06/26 13:11:48;;;;;;;10.03;4.70;;;;;;;;;;5127373;28;20486;-60
2021/06/26 13:14:21;;;;;;;6.80;5.50;;;;;;;;;;5135434;28;20513;-60
2021/06/26 13:16:53;;;;;;;7.10;5.33;;;;;;;;;;5134396;28;20484;-62
2021/06/26 13:19:41;;;;;;;7.67;4.77;;;;;;;;;;5117166;28;20422;-54
2021/06/26 13:22:12;;;;;;;6.07;4.53;;;;;;;;;;5135282;28;20499;-60
2021/06/26 13:24:41;;;;;;;6.63;5.03;;;;;;;;;;5127671;28;20460;-59
2021/06/26 13:27:13;;;;;;;14.87;13.27;;;;;;;;;;5115521;28;20485;-54
2021/06/26 13:29:46;;;;;;;14.10;12.60;;;;;;;;;;5115789;28;20517;-53
2021/06/26 13:32:15;;;;;;;11.07;8.33;;;;;;;;;;5115883;28;20462;-56
2021/06/26 13:34:49;;;;;;;14.00;12.60;;;;;;;;;;5115717;28;20483;-54
2021/06/26 13:37:32;;;;;;;8.30;5.10;;;;;;;;;;5114589;28;20451;-61
2021/06/26 13:40:01;;;;;;;6.40;4.30;;;;;;;;;;5106501;28;20605;-54
2021/06/26 13:48:27;;;;;;;9.73;6.00;;;;;;;;;;5110836;28;20428;-60
2021/06/26 13:50:55;;;;;;;8.80;6.07;;;;;;;;;;5091855;28;20493;-62
2021/06/26 13:53:38;;;;;;;7.50;5.50;;;;;;;;;;5115149;28;20519;-61
2021/06/26 13:56:21;;;;;;;11.60;4.90;;;;;;;;;;5102120;28;20459;-62
2021/06/26 13:59:10;;;;;;;5.20;4.17;;;;;;;;;;5115395;28;20599;-58
2021/06/26 14:01:41;;;;;;;7.30;5.30;;;;;;;;;;5118631;28;20478;-55
2021/06/26 14:04:09;;;;;;;6.03;4.50;;;;;;;;;;5117587;28;20439;-57
2021/06/26 14:06:39;;;;;;;6.50;4.47;;;;;;;;;;5116903;28;20487;-52
2021/06/26 14:09:07;;;;;;;6.60;4.53;;;;;;;;;;5102535;28;20550;-57
2021/06/26 14:11:37;;;;;;;8.33;6.27;;;;;;;;;;5080115;28;20539;-58
2021/06/26 14:14:21;;;;;;;5.73;4.27;;;;;;;;;;5097102;28;20437;-58
2021/06/26 14:16:59;;;;;;;7.50;4.73;;;;;;;;;;5096644;28;20452;-57
2021/06/26 14:19:39;;;;;;;8.13;4.53;;;;;;;;;;5098660;28;20460;-56
2021/06/26 14:22:07;;;;;;;6.87;4.13;;;;;;;;;;5096972;28;20466;-54
2021/06/26 14:24:41;;;;;;;6.13;4.27;;;;;;;;;;5086155;28;20464;-55
2021/06/26 14:27:09;;;;;;;7.70;3.70;;;;;;;;;;5085826;28;20460;-55
2021/06/26 14:30:03;;;;;;;7.10;4.20;;;;;;;;;;5096882;28;20467;-56
2021/06/26 14:32:33;;;;;;;10.50;5.57;;;;;;;;;;5082068;28;20451;-55
2021/06/26 14:35:01;;;;;;;6.67;4.37;;;;;;;;;;5095624;28;20444;-57
2021/06/26 14:37:39;;;;;;;7.40;4.70;;;;;;;;;;5095453;28;20452;-59
2021/06/26 14:40:09;;;;;;;6.70;4.00;;;;;;;;;;5096097;28;20599;-56
2021/06/26 14:42:43;;;;;;;7.90;5.87;;;;;;;;;;5095432;28;20436;-56
2021/06/26 14:45:13;;;;;;;6.00;3.20;;;;;;;;;;5095716;28;20513;-60
2021/06/26 14:47:42;;;;;;;6.43;4.40;;;;;;;;;;5096093;28;20467;-59
2021/06/26 14:50:15;;;;;;;16.70;13.90;;;;;;;;;;5095423;28;20448;-57
2021/06/26 14:52:44;;;;;;;6.80;4.93;;;;;;;;;;5096234;28;20533;-55
2021/06/26 14:55:21;;;;;;;8.00;4.53;;;;;;;;;;5096912;28;20475;-53
2021/06/26 15:00:51;;;;;;;8.00;4.70;;;;;;;;;;5114605;28;20489;-54
2021/06/26 15:03:23;;;;;;;7.77;4.53;;;;;;;;;;5098423;28;20471;-54
2021/06/26 15:05:58;;;;;;;8.53;4.30;;;;;;;;;;5108375;28;20474;-58
2021/06/26 15:08:33;;;;;;;8.37;6.50;;;;;;;;;;5114953;28;20494;-55
2021/06/26 15:11:13;;;;;;;24.07;21.67;;;;;;;;;;5110873;28;20493;-55
2021/06/26 15:13:41;;;;;;;7.57;5.23;;;;;;;;;;5108987;28;20571;-55
2021/06/26 15:16:10;;;;;;;7.33;5.27;;;;;;;;;;5116994;28;20458;-61
2021/06/26 15:18:45;;;;;;;21.30;17.07;;;;;;;;;;5109616;28;20451;-59
2021/06/26 15:21:15;;;;;;;25.87;19.80;;;;;;;;;;5106492;28;20518;-55
2021/06/26 15:23:45;;;;;;;6.87;3.87;;;;;;;;;;5097067;28;20448;-58
2021/06/26 15:26:15;;;;;;;6.00;4.80;;;;;;;;;;5089128;28;20448;-54
2021/06/26 15:31:37;;;;;;;7.60;4.60;;;;;;;;;;5096100;28;20513;-53
2021/06/26 15:34:09;;;;;;;6.87;4.67;;;;;;;;;;5095816;28;20444;-51